createdAt,value
2018-01-12T00:04:13.014Z,7.20
2018-01-12T00:06:41.707Z,7.20
2018-01-12T00:09:10.726Z,7.20
2018-01-12T00:11:38.965Z,7.10
2018-01-12T00:16:37.869Z,7.00
2018-01-12T00:19:06.109Z,7.00
2018-01-12T00:21:34.774Z,6.90
2018-01-12T00:24:03.015Z,6.90
2018-01-12T00:26:31.268Z,6.80
2018-01-12T00:31:29.079Z,6.70
2018-01-12T00:33:57.325Z,6.70
2018-01-12T00:36:25.592Z,6.60
2018-01-12T00:38:54.601Z,6.60
2018-01-12T00:41:23.629Z,6.60
2018-01-12T00:43:52.681Z,6.60
2018-01-12T00:46:22.433Z,6.60
2018-01-12T00:48:50.692Z,6.60
2018-01-12T00:51:19.752Z,6.60
2018-01-12T00:53:48.780Z,6.60
2018-01-12T00:56:17.059Z,6.60
2018-01-12T00:58:46.815Z,6.50
2018-01-12T01:01:15.857Z,6.50
2018-01-12T01:03:44.170Z,6.50
2018-01-12T01:08:42.370Z,6.40
2018-01-12T01:11:10.610Z,6.40
2018-01-12T01:13:38.894Z,6.40
2018-01-12T01:16:07.134Z,6.30
2018-01-12T01:18:36.142Z,6.30
2018-01-12T01:21:05.549Z,6.30
2018-01-12T01:23:33.781Z,6.30
2018-01-12T01:28:31.998Z,6.30
2018-01-12T01:31:00.263Z,6.40
2018-01-12T01:33:28.493Z,6.40
2018-01-12T01:35:56.781Z,6.40
2018-01-12T01:38:25.794Z,6.40
2018-01-12T01:40:55.173Z,6.40
2018-01-12T01:43:23.853Z,6.40
2018-01-12T01:45:52.093Z,6.40
2018-01-12T01:50:56.557Z,6.50
2018-01-12T01:55:54.853Z,6.50
2018-01-12T01:58:29.009Z,6.50
2018-01-12T02:00:57.319Z,6.50
2018-01-12T02:03:26.334Z,6.40
2018-01-12T02:05:55.341Z,6.40
2018-01-12T02:08:23.632Z,6.50
2018-01-12T02:10:51.869Z,6.50
2018-01-12T02:15:49.617Z,6.50
2018-01-12T02:18:18.255Z,6.40
2018-01-12T02:23:16.059Z,6.40
2018-01-12T02:25:44.309Z,6.40
2018-01-12T02:28:12.593Z,6.40
2018-01-12T02:30:41.973Z,6.40
2018-01-12T02:33:10.221Z,6.40
2018-01-12T02:35:38.464Z,6.40
2018-01-12T02:38:06.758Z,6.40
2018-01-12T02:40:35.015Z,6.40
2018-01-12T02:43:04.021Z,6.40
2018-01-12T02:45:33.829Z,6.40
2018-01-12T02:48:02.110Z,6.40
2018-01-12T02:50:30.379Z,6.40
2018-01-12T02:52:59.801Z,6.50
2018-01-12T02:55:31.217Z,6.60
2018-01-12T02:57:59.474Z,6.50
2018-01-12T03:00:29.989Z,6.60
2018-01-12T03:02:59.009Z,6.50
2018-01-12T03:07:57.162Z,6.40
2018-01-12T03:10:25.409Z,6.30
2018-01-12T03:12:54.049Z,6.20
2018-01-12T03:15:22.349Z,6.20
2018-01-12T03:17:50.992Z,6.10
2018-01-12T03:20:19.248Z,6.10
2018-01-12T03:22:48.694Z,6.10
2018-01-12T03:25:17.001Z,6.10
2018-01-12T03:27:45.222Z,6.10
2018-01-12T03:30:13.544Z,6.10
2018-01-12T03:35:11.287Z,6.10
2018-01-12T03:37:39.960Z,6.10
2018-01-12T03:40:08.221Z,6.10
2018-01-12T03:42:36.470Z,6.20
2018-01-12T03:45:05.836Z,6.20
2018-01-12T03:47:34.498Z,6.20
2018-01-12T03:50:03.734Z,6.20
2018-01-12T03:52:32.047Z,6.30
2018-01-12T03:55:00.299Z,6.30
2018-01-12T03:57:28.532Z,6.30
2018-01-12T03:59:56.838Z,6.30
2018-01-12T04:02:25.069Z,6.40
2018-01-12T04:04:54.816Z,6.50
2018-01-12T04:07:23.086Z,6.60
2018-01-12T04:09:51.327Z,6.60
2018-01-12T04:12:19.560Z,6.60
2018-01-12T04:14:47.842Z,6.60
2018-01-12T04:17:17.593Z,6.70
2018-01-12T04:19:45.845Z,6.60
2018-01-12T04:24:43.651Z,6.60
2018-01-12T04:27:13.412Z,6.60
2018-01-12T04:32:11.631Z,6.70
2018-01-12T04:34:39.868Z,6.70
2018-01-12T04:37:08.169Z,6.80
2018-01-12T04:39:36.400Z,6.80
2018-01-12T04:42:04.649Z,6.80
2018-01-12T04:44:35.868Z,6.80
2018-01-12T04:47:04.500Z,6.70
2018-01-12T04:49:33.143Z,6.60
2018-01-12T04:52:03.076Z,6.70
2018-01-12T04:54:32.490Z,6.70
2018-01-12T04:57:01.519Z,6.80
2018-01-12T04:59:29.799Z,6.80
2018-01-12T05:01:58.046Z,6.80
2018-01-12T05:04:27.058Z,6.80
2018-01-12T05:09:25.238Z,6.80
2018-01-12T05:11:53.477Z,6.90
2018-01-12T05:14:21.797Z,6.90
2018-01-12T05:16:50.052Z,6.90
2018-01-12T05:19:19.821Z,6.90
2018-01-12T05:21:48.103Z,7.00
2018-01-12T05:24:16.337Z,6.90
2018-01-12T05:26:44.572Z,6.80
2018-01-12T05:29:12.929Z,6.80
2018-01-12T05:31:41.170Z,6.80
2018-01-12T05:34:09.409Z,6.90
2018-01-12T05:36:38.470Z,6.90
2018-01-12T05:39:07.468Z,6.90
2018-01-12T05:41:35.732Z,7.00
2018-01-12T05:44:04.027Z,7.00
2018-01-12T05:46:33.047Z,7.00
2018-01-12T05:51:31.245Z,6.90
2018-01-12T05:54:00.669Z,6.90
2018-01-12T05:56:29.278Z,6.90
2018-01-12T05:58:57.571Z,6.90
2018-01-12T06:01:38.021Z,6.80
2018-01-12T06:04:19.743Z,6.70
2018-01-12T06:09:18.231Z,6.70
2018-01-12T06:11:46.513Z,6.70
2018-01-12T06:14:14.754Z,6.70
2018-01-12T06:16:42.993Z,6.80
2018-01-12T06:19:12.392Z,6.70
2018-01-12T06:21:40.635Z,6.70
2018-01-12T06:24:09.634Z,6.80
2018-01-12T06:26:37.905Z,6.70
2018-01-12T06:29:06.900Z,6.70
2018-01-12T06:31:35.148Z,6.70
2018-01-12T06:34:03.469Z,6.70
2018-01-12T06:36:33.230Z,6.70
2018-01-12T06:39:01.488Z,6.60
2018-01-12T06:41:29.772Z,6.60
2018-01-12T06:43:58.001Z,6.50
2018-01-12T06:46:27.744Z,6.50
2018-01-12T06:48:56.796Z,6.50
2018-01-12T06:51:26.169Z,6.50
2018-01-12T06:53:54.408Z,6.50
2018-01-12T06:56:22.697Z,6.50
2018-01-12T06:58:52.073Z,6.40
2018-01-12T07:01:20.335Z,6.50
2018-01-12T07:03:49.366Z,6.50
2018-01-12T07:06:17.605Z,6.50
2018-01-12T07:08:46.608Z,6.60
2018-01-12T07:11:14.884Z,6.50
2018-01-12T07:13:43.128Z,6.50
2018-01-12T07:16:11.365Z,6.40
2018-01-12T07:18:40.030Z,6.40
2018-01-12T07:21:20.907Z,6.40
2018-01-12T07:23:49.204Z,6.40
2018-01-12T07:26:17.435Z,6.40
2018-01-12T07:28:45.667Z,6.50
2018-01-12T07:31:13.934Z,6.40
2018-01-12T07:33:42.169Z,6.50
2018-01-12T07:36:10.413Z,6.50
2018-01-12T07:38:38.692Z,6.60
2018-01-12T07:43:37.152Z,6.50
2018-01-12T07:46:05.425Z,6.50
2018-01-12T07:48:34.442Z,6.60
2018-01-12T07:51:02.690Z,6.60
2018-01-12T07:53:31.298Z,6.60
2018-01-12T07:56:00.731Z,6.60
2018-01-12T07:58:28.925Z,6.60
2018-01-12T08:01:02.861Z,6.60
2018-01-12T08:03:31.105Z,6.50
2018-01-12T08:05:59.333Z,6.50
2018-01-12T08:08:27.617Z,6.50
2018-01-12T08:10:55.849Z,6.50
2018-01-12T08:13:24.088Z,6.50
2018-01-12T08:15:52.361Z,6.60
2018-01-12T08:18:20.613Z,6.60
2018-01-12T08:20:48.849Z,6.60
2018-01-12T08:23:17.111Z,6.60
2018-01-12T08:25:46.852Z,6.70
2018-01-12T08:28:15.090Z,6.70
2018-01-12T08:30:43.373Z,6.70
2018-01-12T08:33:12.416Z,6.70
2018-01-12T08:35:40.610Z,6.70
2018-01-12T08:38:08.913Z,6.70
2018-01-12T08:40:37.521Z,6.70
2018-01-12T08:45:35.265Z,6.70
2018-01-12T08:48:03.526Z,6.70
2018-01-12T08:50:31.771Z,6.70
2018-01-12T08:53:00.070Z,6.70
2018-01-12T08:55:28.296Z,6.60
2018-01-12T08:57:58.041Z,6.60
2018-01-12T09:00:26.312Z,6.70
2018-01-12T09:02:54.544Z,6.70
2018-01-12T09:07:53.800Z,6.70
2018-01-12T09:10:22.036Z,6.70
2018-01-12T09:15:22.273Z,6.70
2018-01-12T09:17:50.523Z,6.80
2018-01-12T09:20:18.751Z,6.70
2018-01-12T09:22:48.539Z,6.70
2018-01-12T09:25:25.359Z,6.80
2018-01-12T09:27:53.628Z,6.90
2018-01-12T09:30:21.856Z,6.90
2018-01-12T09:32:51.248Z,7.00
2018-01-12T09:35:19.915Z,7.00
2018-01-12T09:38:01.493Z,6.90
2018-01-12T09:40:31.094Z,7.00
2018-01-12T09:43:00.120Z,7.00
2018-01-12T09:45:28.353Z,6.90
2018-01-12T09:48:03.191Z,6.90
2018-01-12T09:50:31.847Z,6.90
2018-01-12T09:53:01.229Z,6.90
2018-01-12T09:55:30.267Z,7.00
2018-01-12T09:57:58.496Z,7.10
2018-01-12T10:00:28.236Z,7.10
2018-01-12T10:05:26.369Z,7.10
2018-01-12T10:08:17.224Z,7.10
2018-01-12T10:10:45.455Z,7.20
2018-01-12T10:13:14.828Z,7.10
2018-01-12T10:15:43.088Z,7.20
2018-01-12T10:18:18.716Z,7.10
2018-01-12T10:20:48.117Z,7.20
2018-01-12T10:23:17.865Z,7.20
2018-01-12T10:25:46.105Z,7.20
2018-01-12T10:28:14.376Z,7.20
2018-01-12T10:33:17.437Z,7.30
2018-01-12T10:38:22.653Z,7.30
2018-01-12T10:43:22.199Z,7.20
2018-01-12T10:45:59.979Z,7.30
2018-01-12T10:51:34.415Z,7.40
2018-01-12T10:54:03.691Z,7.40
2018-01-12T10:59:02.200Z,7.40
2018-01-12T11:01:31.622Z,7.40
2018-01-12T11:03:59.857Z,7.30
2018-01-12T11:06:28.091Z,7.40
2018-01-12T11:08:56.424Z,7.30
2018-01-12T11:13:54.533Z,7.30
2018-01-12T11:16:23.592Z,7.40
2018-01-12T11:18:51.824Z,7.40
2018-01-12T11:21:20.089Z,7.40
2018-01-12T11:23:48.352Z,7.40
2018-01-12T11:26:16.592Z,7.40
2018-01-12T11:28:44.841Z,7.40
2018-01-12T11:31:13.108Z,7.40
2018-01-12T11:33:42.480Z,7.30
2018-01-12T11:36:10.722Z,7.40
2018-01-12T11:38:38.992Z,7.40
2018-01-12T11:41:07.240Z,7.40
2018-01-12T11:46:05.857Z,7.50
2018-01-12T11:48:35.193Z,7.50
2018-01-12T11:51:04.217Z,7.50
2018-01-12T11:53:32.523Z,7.40
2018-01-12T11:58:32.124Z,7.40
2018-01-12T12:01:01.512Z,7.40
2018-01-12T12:03:29.747Z,7.40
2018-01-12T12:05:58.780Z,7.50
2018-01-12T12:08:27.787Z,7.40
2018-01-12T12:10:56.797Z,7.40
2018-01-12T12:13:26.209Z,7.30
2018-01-12T12:15:54.455Z,7.30
2018-01-12T12:18:22.692Z,7.40
2018-01-12T12:20:51.393Z,7.40
2018-01-12T12:23:19.645Z,7.40
2018-01-12T12:25:48.664Z,7.40
2018-01-12T12:28:17.760Z,7.40
2018-01-12T12:30:45.989Z,7.50
2018-01-12T12:38:13.209Z,7.50
2018-01-12T12:40:41.449Z,7.60
2018-01-12T12:45:39.588Z,7.70
2018-01-12T12:48:08.587Z,7.70
2018-01-12T12:50:36.865Z,7.80
2018-01-12T12:53:05.105Z,7.80
2018-01-12T12:55:34.164Z,7.80
2018-01-12T12:58:04.144Z,7.80
2018-01-12T13:03:03.041Z,7.80
2018-01-12T13:05:31.311Z,7.90
2018-01-12T13:07:59.547Z,8.00
2018-01-12T13:10:27.844Z,8.00
2018-01-12T13:12:56.084Z,8.00
2018-01-12T13:15:25.088Z,8.00
2018-01-12T13:17:53.363Z,8.00
2018-01-12T13:20:22.369Z,8.00
2018-01-12T13:22:51.393Z,8.00
2018-01-12T13:27:49.558Z,7.90
2018-01-12T13:30:17.801Z,7.90
2018-01-12T13:32:46.088Z,7.90
2018-01-12T13:35:14.328Z,7.90
2018-01-12T13:37:42.568Z,7.90
2018-01-12T13:40:10.862Z,7.90
2018-01-12T13:42:39.097Z,7.90
2018-01-12T13:45:07.336Z,7.90
2018-01-12T13:47:38.084Z,8.00
2018-01-12T13:50:07.475Z,8.10
2018-01-12T13:52:35.832Z,8.10
2018-01-12T13:55:04.909Z,7.90
2018-01-12T13:57:33.203Z,7.90
2018-01-12T14:00:02.969Z,7.80
2018-01-12T14:02:31.286Z,7.80
2018-01-12T14:04:59.535Z,7.80
2018-01-12T14:07:27.806Z,7.90
2018-01-12T14:09:56.072Z,7.90
2018-01-12T14:12:24.308Z,8.00
2018-01-12T14:17:22.929Z,7.80
2018-01-12T14:19:52.038Z,7.90
2018-01-12T14:22:20.260Z,7.90
2018-01-12T14:24:48.540Z,8.00
2018-01-12T14:27:16.794Z,8.00
2018-01-12T14:32:15.340Z,8.10
2018-01-12T14:34:44.717Z,8.10
2018-01-12T14:37:13.742Z,8.10
2018-01-12T14:39:42.840Z,8.10
2018-01-12T14:42:11.083Z,8.00
2018-01-12T14:44:39.344Z,8.00
2018-01-12T14:49:03.305Z,7.90
2018-01-12T14:51:31.994Z,7.90
2018-01-12T14:54:01.437Z,8.00
2018-01-12T14:56:29.780Z,8.00
2018-01-12T14:58:58.085Z,8.00
2018-01-12T15:01:26.750Z,8.00
2018-01-12T15:03:55.404Z,8.10
2018-01-12T15:06:24.793Z,8.00
2018-01-12T15:08:53.047Z,8.00
2018-01-12T15:11:21.401Z,8.00
2018-01-12T15:13:49.648Z,8.00
2018-01-12T15:16:19.437Z,8.00
2018-01-12T15:18:47.763Z,8.10
2018-01-12T15:23:45.524Z,8.10
2018-01-12T15:26:13.825Z,8.10
2018-01-12T15:28:42.873Z,8.20
2018-01-12T15:31:11.137Z,8.20
2018-01-12T15:33:40.215Z,8.20
2018-01-12T15:36:09.286Z,8.20
2018-01-12T15:38:37.573Z,8.30
2018-01-12T15:41:06.346Z,8.20
2018-01-12T15:43:34.618Z,8.20
2018-01-12T15:46:03.681Z,8.10
2018-01-12T15:48:32.025Z,8.00
2018-01-12T15:51:00.873Z,8.00
2018-01-12T15:53:29.274Z,8.00
2018-01-12T15:55:58.377Z,8.00
2018-01-12T15:58:27.887Z,7.90
2018-01-12T16:03:26.798Z,7.90
2018-01-12T16:05:55.091Z,7.90
2018-01-12T16:08:24.840Z,7.90
2018-01-12T16:10:53.128Z,7.90
2018-01-12T16:13:21.409Z,7.90
2018-01-12T16:15:49.685Z,7.90
2018-01-12T16:25:47.977Z,8.00
2018-01-12T16:28:16.232Z,7.90
2018-01-12T16:30:44.615Z,7.90
2018-01-12T16:33:12.893Z,7.90
2018-01-12T16:35:41.141Z,7.80
2018-01-12T16:38:09.376Z,7.80
2018-01-12T16:40:37.672Z,7.80
2018-01-12T16:43:06.324Z,7.90
2018-01-12T16:45:34.605Z,7.90
2018-01-12T16:48:02.972Z,8.00
2018-01-12T16:50:31.213Z,8.00
2018-01-12T16:52:59.452Z,7.90
2018-01-12T16:55:27.768Z,7.90
2018-01-12T17:00:25.522Z,7.70
2018-01-12T17:02:53.817Z,7.80
2018-01-12T17:05:22.076Z,7.90
2018-01-12T17:07:51.857Z,7.90
2018-01-12T17:12:49.724Z,7.90
2018-01-12T17:17:48.684Z,7.80
2018-01-12T17:20:16.951Z,7.80
2018-01-12T17:22:45.192Z,7.80
2018-01-12T17:25:13.465Z,7.80
2018-01-12T17:27:41.718Z,7.80
2018-01-12T17:30:10.734Z,7.80
2018-01-12T17:32:39.048Z,7.80
2018-01-12T17:35:07.712Z,7.70
2018-01-12T17:40:06.272Z,7.70
2018-01-12T17:45:04.276Z,7.70
2018-01-12T17:47:33.209Z,7.70
2018-01-12T17:52:32.219Z,7.60
2018-01-12T17:55:00.616Z,7.60
2018-01-12T17:57:28.873Z,7.60
2018-01-12T18:02:26.789Z,7.70
2018-01-12T18:12:24.362Z,7.70
2018-01-12T18:14:53.022Z,7.80
2018-01-12T18:17:22.789Z,7.80
2018-01-12T18:19:51.045Z,7.80
2018-01-12T18:22:19.345Z,7.80
2018-01-12T18:24:47.597Z,7.80
2018-01-12T18:27:15.849Z,7.90
2018-01-12T18:29:44.154Z,7.90
2018-01-12T18:32:12.421Z,7.90
2018-01-12T18:37:10.691Z,7.90
2018-01-12T18:42:08.746Z,8.00
2018-01-12T18:44:37.078Z,8.00
2018-01-12T18:59:33.366Z,7.90
2018-01-12T19:02:03.223Z,7.80
2018-01-12T19:04:31.515Z,7.80
2018-01-12T19:06:59.799Z,7.70
2018-01-12T19:09:28.038Z,7.70
2018-01-12T19:11:56.333Z,7.70
2018-01-12T19:16:54.536Z,7.70
2018-01-12T19:21:52.370Z,7.70
2018-01-12T19:24:20.712Z,7.70
2018-01-12T19:26:49.762Z,7.70
2018-01-12T19:29:19.110Z,7.70
2018-01-12T19:31:47.357Z,7.70
2018-01-12T19:34:17.125Z,7.60
2018-01-12T19:36:45.452Z,7.70
2018-01-12T19:39:15.605Z,7.60
2018-01-12T19:41:46.368Z,7.60
2018-01-12T19:44:15.009Z,7.60
2018-01-12T19:46:43.282Z,7.60
2018-01-12T19:56:40.236Z,7.70
2018-01-12T19:59:08.521Z,7.70
2018-01-12T20:04:07.314Z,7.80
2018-01-12T20:06:35.572Z,7.80
2018-01-12T20:09:03.844Z,7.80
2018-01-12T20:11:32.231Z,7.80
2018-01-12T20:14:00.506Z,7.80
2018-01-12T20:16:29.885Z,7.80
2018-01-12T20:18:58.589Z,7.80
2018-01-12T20:21:26.825Z,7.80
2018-01-12T20:23:56.246Z,7.90
2018-01-12T20:26:24.724Z,7.90
2018-01-12T20:28:52.972Z,7.90
2018-01-12T20:33:51.180Z,7.90
2018-01-12T20:36:19.501Z,7.90
2018-01-12T20:38:47.727Z,7.90
2018-01-12T20:41:16.047Z,7.90
2018-01-12T20:43:44.333Z,7.90
2018-01-12T20:46:14.111Z,7.90
2018-01-12T20:48:42.380Z,7.90
2018-01-12T20:51:10.633Z,7.90
2018-01-12T20:53:38.883Z,7.90
2018-01-12T20:56:08.665Z,7.90
2018-01-12T20:58:38.426Z,7.90
2018-01-12T21:01:07.445Z,7.90
2018-01-12T21:03:36.909Z,7.90
2018-01-12T21:06:06.716Z,7.90
2018-01-12T21:08:36.120Z,7.90
2018-01-12T21:11:04.413Z,7.90
2018-01-12T21:13:32.713Z,7.80
2018-01-12T21:16:01.541Z,7.80
2018-01-12T21:18:29.857Z,7.80
2018-01-12T21:20:59.237Z,7.80
2018-01-12T21:23:27.489Z,7.80
2018-01-12T21:28:26.198Z,7.90
2018-01-12T21:30:54.470Z,7.90
2018-01-12T21:33:23.567Z,7.90
2018-01-12T21:35:51.821Z,8.00
2018-01-12T21:38:20.430Z,8.00
2018-01-12T21:43:18.287Z,8.10
2018-01-12T21:45:46.579Z,8.10
2018-01-12T21:48:15.992Z,8.10
2018-01-12T21:50:44.318Z,8.10
2018-01-12T21:53:12.555Z,8.10
2018-01-12T21:55:40.849Z,8.10
2018-01-12T22:00:39.842Z,8.10
2018-01-12T22:03:09.265Z,8.10
2018-01-12T22:05:37.528Z,8.10
2018-01-12T22:08:05.777Z,8.10
2018-01-12T22:10:35.209Z,8.10
2018-01-12T22:13:03.648Z,8.10
2018-01-12T22:18:01.446Z,8.10
2018-01-12T22:20:29.726Z,8.10
2018-01-12T22:22:57.968Z,8.10
2018-01-12T22:25:26.290Z,8.10
2018-01-12T22:27:54.520Z,8.10
2018-01-12T22:30:22.784Z,8.10
2018-01-12T22:32:51.186Z,8.20
2018-01-12T22:37:48.940Z,8.10
2018-01-12T22:40:17.233Z,8.20
2018-01-12T22:42:45.472Z,8.20
2018-01-12T22:45:13.718Z,8.30
2018-01-12T22:47:41.989Z,8.30
2018-01-12T22:50:10.232Z,8.30
2018-01-12T22:52:38.876Z,8.30
2018-01-12T22:55:07.210Z,8.30
2018-01-12T22:57:35.502Z,8.30
2018-01-12T23:00:03.763Z,8.30
2018-01-12T23:02:33.631Z,8.30
2018-01-12T23:05:02.029Z,8.30
2018-01-12T23:07:30.354Z,8.30
2018-01-12T23:09:59.762Z,8.30
2018-01-12T23:12:27.996Z,8.30
2018-01-12T23:14:56.286Z,8.20
2018-01-12T23:17:24.577Z,8.20
2018-01-12T23:19:52.937Z,8.20
2018-01-12T23:22:21.250Z,8.10
2018-01-12T23:24:49.601Z,8.10
2018-01-12T23:27:19.384Z,8.10
2018-01-12T23:34:47.821Z,8.10
2018-01-12T23:39:46.348Z,8.20
2018-01-12T23:42:15.416Z,8.20
2018-01-12T23:44:43.693Z,8.30
2018-01-12T23:47:11.932Z,8.30
2018-01-12T23:49:40.254Z,8.30
2018-01-12T23:52:08.541Z,8.30
2018-01-12T23:54:36.812Z,8.20
2018-01-12T23:57:05.853Z,8.30
2018-01-12T23:59:34.166Z,8.30
